Time;durP1;ratioP1;P1;durP2;ratioP2;P2;SDS_P1;SDS_P2;PMS_P1;PMS_P2;Temp;Humidity;BMP_temperature;BMP_pressure;BME280_temperature;BME280_humidity;BME280_pressure;Samples;Min_cycle;Max_cycle;Signal;HPM_P1;HPM_P2
2023/04/24 00:01:12;;;;;;;13.77;9.10;;;12.30;99.90;;;;;;5039709;28;20316;-40
2023/04/24 00:03:40;;;;;;;13.70;9.63;;;12.30;99.90;;;;;;5042803;28;20226;-40
2023/04/24 00:06:10;;;;;;;16.30;10.57;;;12.30;99.90;;;;;;5041543;28;20228;-40
2023/04/24 00:08:39;;;;;;;13.63;9.87;;;12.30;99.90;;;;;;5044260;28;20564;-40
2023/04/24 00:11:07;;;;;;;13.63;10.03;;;12.30;99.90;;;;;;5043419;28;20286;-40
2023/04/24 00:13:36;;;;;;;13.73;9.63;;;12.30;99.90;;;;;;5040972;28;20227;-40
2023/04/24 00:16:05;;;;;;;16.80;10.87;;;12.30;99.90;;;;;;5060761;28;20503;-40
2023/04/24 00:18:35;;;;;;;15.57;9.97;;;12.30;99.90;;;;;;5061183;28;20211;-40
2023/04/24 00:21:07;;;;;;;13.50;9.90;;;12.30;99.90;;;;;;5063249;28;20195;-40
2023/04/24 00:23:34;;;;;;;17.20;10.33;;;12.30;99.90;;;;;;5063741;28;20715;-40
2023/04/24 00:26:04;;;;;;;15.37;10.03;;;12.30;99.90;;;;;;5058870;28;20321;-40
2023/04/24 00:28:33;;;;;;;13.07;9.77;;;12.30;99.90;;;;;;5061375;28;20291;-40
2023/04/24 00:31:01;;;;;;;15.73;10.90;;;12.30;99.90;;;;;;5053324;28;20232;-40
2023/04/24 00:33:28;;;;;;;16.77;9.93;;;12.30;99.90;;;;;;5023539;28;20223;-40
2023/04/24 00:35:58;;;;;;;13.10;10.23;;;12.30;99.90;;;;;;5026950;28;20224;-40
2023/04/24 00:38:25;;;;;;;14.17;9.63;;;12.30;99.90;;;;;;5023344;28;20196;-40
2023/04/24 00:40:53;;;;;;;14.20;8.60;;;12.30;99.90;;;;;;5024020;28;20693;-40
2023/04/24 00:43:23;;;;;;;12.40;9.30;;;12.30;99.90;;;;;;5021212;28;20192;-40
2023/04/24 00:45:50;;;;;;;13.53;9.83;;;12.30;99.90;;;;;;5048011;28;20231;-40
2023/04/24 00:48:20;;;;;;;13.47;10.27;;;12.30;99.90;;;;;;5050389;28;20323;-40
2023/04/24 00:50:53;;;;;;;19.00;10.30;;;12.30;99.90;;;;;;5037610;28;20540;-40
2023/04/24 00:53:22;;;;;;;12.87;9.67;;;12.30;99.90;;;;;;5023185;28;20244;-40
2023/04/24 00:55:50;;;;;;;16.10;10.40;;;12.30;99.90;;;;;;5040218;28;20231;-39
2023/04/24 00:58:22;;;;;;;13.67;10.40;;;12.30;99.90;;;;;;5049812;28;20255;-40
2023/04/24 01:00:52;;;;;;;18.33;10.87;;;12.20;99.90;;;;;;5024980;28;20197;-39
2023/04/24 01:03:25;;;;;;;14.23;9.30;;;12.20;99.90;;;;;;5026546;28;20589;-40
2023/04/24 01:05:55;;;;;;;15.67;11.10;;;12.20;99.90;;;;;;5043975;28;20661;-40
2023/04/24 01:08:27;;;;;;;12.60;8.70;;;12.10;99.90;;;;;;5029922;28;20291;-40
2023/04/24 01:11:03;;;;;;;16.93;10.13;;;12.10;99.90;;;;;;5041449;28;20293;-40
2023/04/24 01:13:33;;;;;;;16.33;10.10;;;12.10;99.90;;;;;;5048652;28;20311;-40
2023/04/24 01:16:03;;;;;;;12.07;9.10;;;12.10;99.90;;;;;;5051742;28;20203;-40
2023/04/24 01:18:36;;;;;;;16.20;9.73;;;12.10;99.90;;;;;;5044540;28;20215;-40
2023/04/24 01:21:08;;;;;;;15.47;10.20;;;12.10;99.90;;;;;;5043361;28;20306;-40
2023/04/24 01:23:35;;;;;;;15.47;9.67;;;12.10;99.90;;;;;;5046089;28;20322;-40
2023/04/24 01:26:03;;;;;;;16.97;9.80;;;12.10;99.90;;;;;;5042765;28;20196;-40
2023/04/24 01:28:30;;;;;;;13.27;8.83;;;12.10;99.90;;;;;;5041711;28;20232;-40
2023/04/24 01:31:00;;;;;;;13.57;9.37;;;12.10;99.90;;;;;;5030687;28;20221;-40
2023/04/24 01:33:33;;;;;;;16.47;9.73;;;12.10;99.90;;;;;;5025423;28;20314;-40
2023/04/24 01:36:03;;;;;;;13.03;9.27;;;12.10;99.90;;;;;;5027205;28;20199;-40
2023/04/24 01:38:30;;;;;;;16.10;9.73;;;12.10;99.90;;;;;;5026794;28;20801;-40
2023/04/24 01:40:57;;;;;;;15.63;9.17;;;12.00;99.90;;;;;;5049716;28;20294;-39
2023/04/24 01:43:28;;;;;;;10.27;7.50;;;12.00;99.90;;;;;;5066142;28;20296;-39
2023/04/24 01:45:55;;;;;;;10.90;8.47;;;12.00;99.90;;;;;;5033331;28;20219;-40
2023/04/24 01:48:22;;;;;;;12.00;7.80;;;12.00;99.90;;;;;;5026593;28;20264;-40
2023/04/24 01:50:49;;;;;;;14.77;8.30;;;12.00;99.90;;;;;;5039439;28;20286;-40
2023/04/24 01:53:21;;;;;;;13.00;7.67;;;12.00;99.90;;;;;;5066115;28;20234;-40
2023/04/24 01:55:48;;;;;;;12.50;8.67;;;12.00;99.90;;;;;;5062161;28;20257;-39
2023/04/24 01:58:16;;;;;;;12.13;8.20;;;12.00;99.90;;;;;;5024538;28;20390;-40
2023/04/24 02:00:43;;;;;;;11.07;8.07;;;11.90;99.90;;;;;;5050346;28;20204;-40
2023/04/24 02:03:17;;;;;;;10.80;7.90;;;11.90;99.90;;;;;;5064571;28;20729;-40
2023/04/24 02:05:47;;;;;;;10.13;7.00;;;11.90;99.90;;;;;;5065030;28;20251;-40
2023/04/24 02:08:14;;;;;;;11.37;7.33;;;11.90;99.90;;;;;;5066187;28;20247;-39
2023/04/24 02:10:44;;;;;;;10.70;7.50;;;11.90;99.90;;;;;;5061456;28;20199;-40
2023/04/24 02:13:11;;;;;;;12.17;7.37;;;11.90;99.90;;;;;;5055564;28;20279;-39
2023/04/24 02:15:45;;;;;;;9.33;7.10;;;11.90;99.90;;;;;;5045135;28;20200;-39
2023/04/24 02:18:15;;;;;;;9.87;7.53;;;11.80;99.90;;;;;;5064820;28;20729;-40
2023/04/24 02:20:42;;;;;;;11.63;7.30;;;11.80;99.90;;;;;;5062431;28;20715;-40
2023/04/24 02:23:09;;;;;;;10.60;7.73;;;11.80;99.90;;;;;;5058288;28;20620;-39
2023/04/24 02:25:39;;;;;;;8.43;7.20;;;11.80;99.90;;;;;;5028214;28;20217;-40
2023/04/24 02:28:11;;;;;;;11.37;7.67;;;11.80;99.90;;;;;;5025349;28;20308;-40
2023/04/24 02:30:38;;;;;;;9.67;7.93;;;11.80;99.90;;;;;;5026050;28;20544;-39
2023/04/24 02:33:05;;;;;;;9.37;7.50;;;11.80;99.90;;;;;;5026052;28;20247;-39
2023/04/24 02:35:34;;;;;;;9.13;7.70;;;11.80;99.90;;;;;;5032430;28;20232;-39
2023/04/24 02:38:06;;;;;;;12.13;9.10;;;11.80;99.90;;;;;;5045912;28;20208;-39
2023/04/24 02:40:34;;;;;;;12.60;8.87;;;11.80;99.90;;;;;;5045234;28;20525;-39
2023/04/24 02:43:03;;;;;;;9.37;8.37;;;11.70;99.90;;;;;;5062404;28;20192;-39
2023/04/24 02:45:34;;;;;;;9.87;7.93;;;11.70;99.90;;;;;;5062158;28;20704;-39
2023/04/24 02:48:06;;;;;;;11.60;8.20;;;11.70;99.90;;;;;;5058902;28;20219;-39
2023/04/24 02:50:35;;;;;;;13.07;9.37;;;11.70;99.90;;;;;;5066291;28;20212;-39
2023/04/24 02:53:05;;;;;;;11.50;9.10;;;11.70;99.90;;;;;;5065183;28;20249;-39
2023/04/24 02:55:32;;;;;;;11.50;8.60;;;11.70;99.90;;;;;;5063464;28;20312;-39
2023/04/24 02:58:02;;;;;;;10.33;8.20;;;11.70;99.90;;;;;;5060454;28;20871;-39
2023/04/24 03:00:32;;;;;;;10.60;8.73;;;11.70;99.90;;;;;;5061615;28;20276;-39
2023/04/24 03:03:05;;;;;;;11.73;8.83;;;11.60;99.90;;;;;;5065437;28;20282;-39
2023/04/24 03:05:32;;;;;;;12.17;8.27;;;11.60;99.90;;;;;;5032549;28;20773;-39
2023/04/24 03:08:02;;;;;;;11.17;8.87;;;11.60;99.90;;;;;;5007638;28;20716;-39
2023/04/24 03:10:29;;;;;;;9.77;8.47;;;11.60;99.90;;;;;;5041180;28;20231;-39
2023/04/24 03:12:56;;;;;;;10.33;7.80;;;11.60;99.90;;;;;;5063055;28;20326;-39
2023/04/24 03:15:28;;;;;;;10.97;7.70;;;11.60;99.90;;;;;;5061840;28;20273;-39
2023/04/24 03:17:56;;;;;;;10.50;7.83;;;11.60;99.90;;;;;;5052444;28;20197;-39
2023/04/24 03:20:26;;;;;;;7.70;6.90;;;11.60;99.90;;;;;;5029356;28;20215;-39
2023/04/24 03:22:56;;;;;;;13.00;7.60;;;11.60;99.90;;;;;;5026393;28;20215;-39
2023/04/24 03:25:24;;;;;;;9.63;7.23;;;11.60;99.90;;;;;;5025735;28;20285;-39
2023/04/24 03:27:54;;;;;;;9.30;7.20;;;11.50;99.90;;;;;;5024132;28;20237;-39
2023/04/24 03:30:24;;;;;;;7.63;6.80;;;11.50;99.90;;;;;;5038542;28;20199;-39
2023/04/24 03:32:55;;;;;;;8.10;6.80;;;11.50;99.90;;;;;;5064570;28;20219;-39
2023/04/24 03:35:23;;;;;;;10.57;7.33;;;11.50;99.90;;;;;;5065424;28;20199;-39
2023/04/24 03:37:52;;;;;;;8.33;6.70;;;11.50;99.90;;;;;;5058856;28;20278;-39
2023/04/24 03:40:19;;;;;;;8.73;6.60;;;11.50;99.90;;;;;;5030837;28;20556;-39
2023/04/24 03:42:49;;;;;;;8.60;6.20;;;11.40;99.90;;;;;;5062397;28;20904;-39
2023/04/24 03:45:18;;;;;;;10.63;6.80;;;11.40;99.90;;;;;;5062876;28;20265;-39
2023/04/24 03:47:47;;;;;;;7.40;6.13;;;11.40;99.90;;;;;;5064117;28;20227;-39
2023/04/24 03:50:15;;;;;;;8.77;6.53;;;11.40;99.90;;;;;;5063290;28;20299;-39
2023/04/24 03:52:44;;;;;;;9.83;6.40;;;11.40;99.90;;;;;;5061864;28;20262;-39
2023/04/24 03:55:14;;;;;;;6.93;5.90;;;11.40;99.90;;;;;;5053125;28;20209;-39
2023/04/24 03:57:41;;;;;;;8.17;5.77;;;11.40;99.90;;;;;;5023112;28;20236;-39
2023/04/24 04:00:09;;;;;;;8.33;6.27;;;11.40;99.90;;;;;;5027240;28;20228;-39
2023/04/24 04:02:37;;;;;;;7.03;5.60;;;11.40;99.90;;;;;;5064121;28;20302;-38
2023/04/24 04:05:11;;;;;;;6.10;5.33;;;11.40;99.90;;;;;;5064199;28;20206;-38
2023/04/24 04:07:40;;;;;;;7.10;5.17;;;11.40;99.90;;;;;;5063925;28;20228;-38
2023/04/24 04:10:12;;;;;;;7.87;5.17;;;11.40;99.90;;;;;;5064504;28;20692;-38
2023/04/24 04:12:44;;;;;;;7.40;5.20;;;11.40;99.90;;;;;;5039229;28;20250;-38
2023/04/24 04:15:13;;;;;;;6.37;4.53;;;11.40;99.90;;;;;;5061182;28;20294;-38
2023/04/24 04:17:41;;;;;;;6.87;4.70;;;11.40;99.90;;;;;;5040441;28;20331;-37
2023/04/24 04:20:09;;;;;;;6.63;4.40;;;11.40;99.90;;;;;;5039743;28;20253;-37
2023/04/24 04:22:37;;;;;;;4.57;4.00;;;11.40;99.90;;;;;;5024423;28;20213;-37
2023/04/24 04:25:08;;;;;;;5.70;3.97;;;11.40;99.90;;;;;;5038450;28;20205;-37
2023/04/24 04:27:36;;;;;;;6.03;3.90;;;11.40;99.90;;;;;;5024030;28;20322;-37
2023/04/24 04:30:04;;;;;;;3.63;3.33;;;11.40;99.90;;;;;;5036860;28;20217;-37
2023/04/24 04:32:41;;;;;;;5.27;4.17;;;11.40;99.90;;;;;;5055496;28;20203;-38
2023/04/24 04:35:09;;;;;;;4.37;3.80;;;11.40;99.90;;;;;;5063826;28;20628;-37
2023/04/24 04:37:39;;;;;;;4.97;3.63;;;11.40;99.90;;;;;;5063648;28;20292;-37
2023/04/24 04:40:11;;;;;;;4.17;3.37;;;11.40;99.90;;;;;;5056956;28;20253;-38
2023/04/24 04:42:41;;;;;;;4.33;3.67;;;11.40;99.90;;;;;;5035351;28;20354;-38
2023/04/24 04:45:11;;;;;;;4.53;3.37;;;11.40;99.90;;;;;;5023836;28;20223;-38
2023/04/24 04:47:40;;;;;;;4.63;3.30;;;11.40;99.90;;;;;;5039637;28;20242;-37
2023/04/24 04:50:11;;;;;;;4.03;3.10;;;11.40;99.90;;;;;;5063622;28;20203;-37
2023/04/24 04:52:42;;;;;;;3.33;2.83;;;11.40;99.90;;;;;;5060425;28;20231;-38
2023/04/24 04:55:13;;;;;;;3.97;3.53;;;11.30;99.90;;;;;;5038786;28;20230;-38
2023/04/24 04:57:40;;;;;;;5.00;4.03;;;11.30;99.90;;;;;;5042348;28;20243;-38
2023/04/24 05:00:10;;;;;;;5.70;4.17;;;11.30;99.90;;;;;;5028861;28;20299;-39
2023/04/24 05:02:40;;;;;;;5.30;4.33;;;11.30;99.90;;;;;;5024363;28;20396;-39
2023/04/24 05:05:11;;;;;;;5.33;4.33;;;11.30;99.90;;;;;;5026213;28;20228;-39
2023/04/24 05:07:40;;;;;;;7.93;4.50;;;11.20;99.90;;;;;;5025085;28;20233;-38
2023/04/24 05:10:11;;;;;;;6.43;4.80;;;11.20;99.90;;;;;;5028074;28;20208;-39
2023/04/24 05:12:38;;;;;;;7.37;5.53;;;11.20;99.90;;;;;;5041046;28;20335;-39
2023/04/24 05:15:06;;;;;;;7.63;6.00;;;11.20;99.90;;;;;;5052059;28;20675;-39
2023/04/24 05:17:43;;;;;;;10.37;6.57;;;11.20;99.90;;;;;;5028672;28;20634;-39
2023/04/24 05:20:13;;;;;;;7.50;6.47;;;11.10;99.90;;;;;;5037972;28;20215;-39
2023/04/24 05:22:42;;;;;;;7.10;6.07;;;11.10;99.90;;;;;;5057060;28;20303;-42
2023/04/24 05:25:12;;;;;;;7.83;6.80;;;11.10;99.90;;;;;;5041357;28;20208;-42
2023/04/24 05:27:42;;;;;;;9.37;6.57;;;11.10;99.90;;;;;;5041342;28;20224;-39
2023/04/24 05:30:12;;;;;;;8.30;6.60;;;11.10;99.90;;;;;;5050579;28;20232;-39
2023/04/24 05:32:39;;;;;;;10.30;7.13;;;11.10;99.90;;;;;;5040909;28;20338;-39
2023/04/24 05:35:07;;;;;;;9.10;6.50;;;11.10;99.90;;;;;;5043618;28;20195;-39
2023/04/24 05:37:34;;;;;;;10.10;6.93;;;11.10;99.90;;;;;;5035320;28;20710;-39
2023/04/24 05:40:04;;;;;;;7.67;6.67;;;11.10;99.90;;;;;;5059841;28;20587;-40
2023/04/24 05:42:32;;;;;;;11.33;7.33;;;11.00;99.90;;;;;;5060961;28;20200;-44
2023/04/24 05:44:59;;;;;;;9.33;7.10;;;11.00;99.90;;;;;;5058601;28;20203;-42
2023/04/24 05:47:26;;;;;;;10.83;7.70;;;11.00;99.90;;;;;;5060745;28;20771;-44
2023/04/24 05:49:55;;;;;;;10.67;7.07;;;11.00;99.90;;;;;;5058550;28;20673;-43
2023/04/24 05:52:25;;;;;;;10.30;7.27;;;11.00;99.90;;;;;;5058209;28;20554;-43
2023/04/24 05:54:52;;;;;;;8.47;7.27;;;11.00;99.90;;;;;;5027904;28;20219;-42
2023/04/24 05:57:20;;;;;;;10.00;7.53;;;11.00;99.90;;;;;;5031853;28;20250;-43
2023/04/24 05:59:47;;;;;;;10.07;7.40;;;11.00;99.90;;;;;;5035480;28;20299;-43
2023/04/24 06:02:14;;;;;;;10.10;7.57;;;11.00;99.90;;;;;;5022902;28;20284;-43
2023/04/24 06:04:41;;;;;;;9.03;7.30;;;10.90;99.90;;;;;;5020310;28;20683;-42
2023/04/24 06:07:13;;;;;;;11.07;7.70;;;11.00;99.90;;;;;;5032462;28;20193;-42
2023/04/24 06:09:42;;;;;;;15.10;9.20;;;11.00;99.90;;;;;;5040469;28;20274;-43
2023/04/24 06:12:10;;;;;;;16.30;8.70;;;11.00;99.90;;;;;;5033671;28;20216;-42
2023/04/24 06:14:39;;;;;;;12.13;8.47;;;10.90;99.90;;;;;;5041974;28;20228;-42
2023/04/24 06:17:06;;;;;;;14.23;8.30;;;10.90;99.90;;;;;;5040431;28;20303;-41
2023/04/24 06:19:41;;;;;;;13.17;8.10;;;10.90;99.90;;;;;;5035561;28;20742;-40
2023/04/24 06:22:08;;;;;;;9.83;7.97;;;10.90;99.90;;;;;;5044775;28;20247;-42
2023/04/24 06:24:39;;;;;;;12.07;8.70;;;11.00;99.90;;;;;;5039007;28;20554;-42
2023/04/24 06:27:07;;;;;;;16.57;10.00;;;11.00;99.90;;;;;;5038140;28;20201;-43
2023/04/24 06:29:35;;;;;;;15.80;9.93;;;10.90;99.90;;;;;;5040525;28;20824;-42
2023/04/24 06:32:04;;;;;;;13.63;9.27;;;10.90;99.90;;;;;;5029004;28;20201;-41
2023/04/24 06:34:36;;;;;;;14.87;9.07;;;11.00;99.90;;;;;;5046838;28;20211;-41
2023/04/24 06:37:06;;;;;;;12.53;9.50;;;11.00;99.90;;;;;;5029505;28;20658;-41
2023/04/24 06:39:33;;;;;;;12.43;9.70;;;11.00;99.90;;;;;;5041865;28;20303;-40
2023/04/24 06:42:03;;;;;;;13.47;10.00;;;10.90;99.90;;;;;;5040438;28;20288;-40
2023/04/24 06:44:30;;;;;;;15.13;10.60;;;10.90;99.90;;;;;;5033859;28;20738;-40
2023/04/24 06:46:59;;;;;;;15.13;9.60;;;10.90;99.90;;;;;;5040928;28;20217;-40
2023/04/24 06:49:26;;;;;;;14.03;9.97;;;10.90;99.90;;;;;;5047262;28;20836;-40
2023/04/24 06:51:53;;;;;;;14.57;10.13;;;10.90;99.90;;;;;;5064246;28;20208;-40
2023/04/24 06:54:23;;;;;;;15.17;10.30;;;10.90;99.90;;;;;;5035950;28;20201;-40
2023/04/24 06:56:54;;;;;;;14.23;9.27;;;10.90;99.90;;;;;;5027181;28;20240;-40
2023/04/24 06:59:24;;;;;;;13.63;9.33;;;10.90;99.90;;;;;;5048384;28;20202;-40
2023/04/24 07:01:53;;;;;;;15.00;11.07;;;10.90;99.90;;;;;;5029047;28;20244;-39
2023/04/24 07:04:21;;;;;;;21.47;12.43;;;10.90;99.90;;;;;;5039710;28;20212;-40
2023/04/24 07:06:54;;;;;;;18.07;11.27;;;10.90;99.90;;;;;;5045278;28;20236;-39
2023/04/24 07:09:25;;;;;;;20.23;11.40;;;10.90;99.90;;;;;;5039078;28;20219;-39
2023/04/24 07:11:56;;;;;;;14.80;11.33;;;10.90;99.90;;;;;;5025303;28;20306;-40
2023/04/24 07:14:28;;;;;;;20.27;11.83;;;10.90;99.90;;;;;;5040111;28;20991;-39
2023/04/24 07:16:58;;;;;;;18.70;11.80;;;10.90;99.90;;;;;;5025350;28;20201;-39
2023/04/24 07:19:30;;;;;;;17.40;11.43;;;10.90;99.90;;;;;;5025089;28;20217;-39
2023/04/24 07:22:00;;;;;;;18.10;12.43;;;10.90;99.90;;;;;;5035861;28;20475;-39
2023/04/24 07:24:27;;;;;;;16.93;12.43;;;10.90;99.90;;;;;;5025321;28;20205;-39
2023/04/24 07:27:00;;;;;;;17.40;12.70;;;10.90;99.90;;;;;;5024176;28;20204;-40
2023/04/24 07:29:30;;;;;;;19.33;11.77;;;10.90;99.90;;;;;;5030939;28;20594;-40
2023/04/24 07:32:02;;;;;;;19.03;12.03;;;10.90;99.90;;;;;;5037606;28;20224;-41
2023/04/24 07:34:30;;;;;;;17.33;11.87;;;10.90;99.90;;;;;;5038584;28;20196;-41
2023/04/24 07:36:57;;;;;;;18.40;12.17;;;10.90;99.90;;;;;;5042721;28;20210;-41
2023/04/24 07:39:27;;;;;;;17.83;11.97;;;10.90;99.90;;;;;;5038685;28;20299;-41
2023/04/24 07:41:58;;;;;;;18.17;11.23;;;11.00;99.90;;;;;;5040055;28;20200;-41
2023/04/24 07:44:26;;;;;;;17.40;12.20;;;10.90;99.90;;;;;;5026262;28;20230;-41
2023/04/24 07:46:56;;;;;;;19.73;12.13;;;11.00;99.90;;;;;;5034032;28;20460;-41
2023/04/24 07:49:27;;;;;;;19.00;12.70;;;11.00;99.90;;;;;;5043421;28;20264;-41
2023/04/24 07:51:54;;;;;;;15.57;11.63;;;11.00;99.90;;;;;;5040426;28;20690;-42
2023/04/24 07:54:26;;;;;;;19.63;11.80;;;11.00;99.90;;;;;;5038604;28;20197;-42
2023/04/24 07:56:58;;;;;;;17.40;10.97;;;11.00;99.90;;;;;;5016713;28;20255;-42
2023/04/24 07:59:27;;;;;;;15.03;10.57;;;11.00;99.90;;;;;;5032510;28;20204;-42
2023/04/24 08:01:55;;;;;;;17.47;11.00;;;11.10;99.90;;;;;;5041751;28;20572;-42
2023/04/24 08:04:22;;;;;;;19.23;10.67;;;11.10;99.90;;;;;;5043470;28;20285;-41
2023/04/24 08:06:52;;;;;;;16.43;10.70;;;11.10;99.90;;;;;;5039926;28;20693;-42
2023/04/24 08:09:24;;;;;;;16.87;10.57;;;11.10;99.90;;;;;;5024694;28;20224;-42
2023/04/24 08:11:53;;;;;;;14.13;9.43;;;11.10;99.90;;;;;;5041778;28;20207;-42
2023/04/24 08:14:21;;;;;;;16.50;9.57;;;11.10;99.90;;;;;;5050812;28;20241;-41
2023/04/24 08:16:48;;;;;;;10.93;8.13;;;11.20;99.90;;;;;;5043440;28;20667;-42
2023/04/24 08:19:16;;;;;;;18.20;9.60;;;11.30;99.90;;;;;;5035654;28;20204;-41
2023/04/24 08:21:49;;;;;;;16.50;9.53;;;11.30;99.90;;;;;;5042998;28;20208;-42
2023/04/24 08:24:16;;;;;;;18.83;8.10;;;11.30;99.90;;;;;;5040757;28;20831;-41
2023/04/24 08:26:43;;;;;;;16.00;9.07;;;11.40;99.90;;;;;;5058431;28;20199;-42
2023/04/24 08:29:11;;;;;;;13.23;7.63;;;11.40;99.90;;;;;;5034534;28;20298;-41
2023/04/24 08:31:38;;;;;;;14.77;7.33;;;11.50;99.90;;;;;;5043519;28;20243;-41
2023/04/24 08:34:05;;;;;;;13.23;7.93;;;11.50;99.90;;;;;;5035892;28;20220;-41
2023/04/24 08:36:35;;;;;;;10.57;7.30;;;11.50;99.90;;;;;;5059431;28;20514;-41
2023/04/24 08:39:20;;;;;;;15.57;7.60;;;11.50;99.90;;;;;;5036791;28;20205;-41
2023/04/24 08:41:54;;;;;;;12.83;7.20;;;11.50;99.90;;;;;;5042465;28;20228;-42
2023/04/24 08:44:24;;;;;;;13.20;7.70;;;11.50;99.90;;;;;;5033301;28;20207;-41
2023/04/24 08:46:55;;;;;;;12.80;7.33;;;11.50;99.90;;;;;;5021938;28;20201;-41
2023/04/24 08:49:25;;;;;;;13.27;7.77;;;11.50;99.90;;;;;;5034877;28;20342;-42
2023/04/24 08:51:53;;;;;;;11.40;7.80;;;11.60;99.90;;;;;;5026159;28;20323;-41
2023/04/24 08:54:27;;;;;;;14.87;8.03;;;11.60;99.90;;;;;;5041342;28;20207;-42
2023/04/24 08:57:03;;;;;;;13.53;8.13;;;11.70;99.90;;;;;;5023180;28;20730;-41
2023/04/24 08:59:32;;;;;;;20.40;7.50;;;11.70;99.90;;;;;;5042907;28;20635;-41
2023/04/24 09:02:00;;;;;;;13.63;6.93;;;11.70;99.90;;;;;;5038531;28;20695;-41
2023/04/24 09:04:29;;;;;;;15.90;7.33;;;11.80;99.90;;;;;;5039716;28;20239;-41
2023/04/24 09:07:03;;;;;;;18.00;7.73;;;11.80;99.90;;;;;;5059413;28;20208;-41
2023/04/24 09:09:32;;;;;;;14.07;6.60;;;11.80;99.90;;;;;;5034054;28;20224;-41
2023/04/24 09:12:03;;;;;;;15.67;7.50;;;11.80;99.90;;;;;;5041010;28;20258;-41
2023/04/24 09:14:32;;;;;;;16.43;6.97;;;11.80;99.90;;;;;;5042093;28;20231;-42
2023/04/24 09:16:59;;;;;;;16.33;7.13;;;11.80;99.90;;;;;;5042175;28;20236;-41
2023/04/24 09:19:26;;;;;;;11.50;6.10;;;11.80;99.90;;;;;;5036055;28;20216;-41
2023/04/24 09:21:54;;;;;;;16.70;7.07;;;11.80;99.90;;;;;;5043749;28;20223;-41
2023/04/24 09:24:23;;;;;;;15.77;6.90;;;11.80;99.90;;;;;;5037677;28;20204;-42
2023/04/24 09:27:03;;;;;;;12.53;6.83;;;11.80;99.90;;;;;;5040420;28;20220;-41
2023/04/24 09:29:33;;;;;;;14.00;6.10;;;11.80;99.90;;;;;;5045166;28;20720;-41
2023/04/24 09:32:21;;;;;;;17.67;6.77;;;11.80;99.90;;;;;;5036825;28;20326;-42
2023/04/24 09:35:11;;;;;;;12.70;6.27;;;11.70;99.90;;;;;;5046297;28;20212;-42
2023/04/24 09:37:43;;;;;;;12.23;6.80;;;11.70;99.90;;;;;;5022896;28;20220;-41
2023/04/24 09:40:19;;;;;;;13.90;6.93;;;11.70;99.90;;;;;;5036231;28;20682;-42
2023/04/24 09:42:57;;;;;;;14.13;6.87;;;11.70;99.90;;;;;;5029263;28;20201;-41
2023/04/24 09:45:34;;;;;;;11.20;5.97;;;11.60;99.90;;;;;;5045828;28;20230;-42
2023/04/24 09:48:06;;;;;;;13.73;6.50;;;11.70;99.90;;;;;;5062147;28;20199;-42
2023/04/24 09:50:37;;;;;;;10.77;6.47;;;11.70;99.90;;;;;;5044729;28;20388;-42
2023/04/24 09:53:08;;;;;;;17.93;7.03;;;11.80;99.90;;;;;;5031079;28;20275;-42
2023/04/24 09:55:46;;;;;;;14.97;5.90;;;11.80;99.90;;;;;;5030268;28;20211;-42
2023/04/24 09:58:15;;;;;;;9.93;5.47;;;11.80;99.90;;;;;;5024568;28;20406;-42
2023/04/24 10:00:47;;;;;;;11.40;5.50;;;11.80;99.90;;;;;;5031172;28;20197;-42
2023/04/24 10:03:14;;;;;;;10.73;4.50;;;11.90;99.90;;;;;;5027370;28;20607;-42
2023/04/24 10:05:46;;;;;;;11.73;4.53;;;11.90;99.90;;;;;;5035332;28;20203;-41
2023/04/24 10:08:16;;;;;;;10.53;4.70;;;12.00;99.90;;;;;;5037139;28;20286;-41
2023/04/24 10:10:48;;;;;;;10.10;4.90;;;12.00;99.90;;;;;;5038748;28;20205;-41
2023/04/24 10:13:20;;;;;;;9.20;4.90;;;12.00;99.90;;;;;;5037013;28;20626;-42
2023/04/24 10:15:55;;;;;;;8.77;4.27;;;12.00;99.90;;;;;;5028933;28;20216;-41
2023/04/24 10:18:27;;;;;;;10.23;4.87;;;12.10;99.90;;;;;;5027594;28;20231;-41
2023/04/24 10:20:54;;;;;;;7.67;4.63;;;12.10;99.90;;;;;;5035884;28;20235;-41
2023/04/24 10:23:25;;;;;;;11.27;5.20;;;12.10;99.90;;;;;;5033865;28;20334;-41
2023/04/24 10:25:55;;;;;;;9.83;4.73;;;12.00;99.90;;;;;;5045797;28;20736;-41
2023/04/24 10:28:26;;;;;;;10.13;5.07;;;12.00;99.90;;;;;;5037584;28;20239;-41
2023/04/24 10:30:57;;;;;;;9.27;4.93;;;12.10;99.90;;;;;;5062824;28;20598;-41
2023/04/24 10:33:26;;;;;;;9.33;5.43;;;12.10;99.90;;;;;;5060049;28;20503;-41
2023/04/24 10:35:58;;;;;;;10.50;4.87;;;12.10;99.90;;;;;;5066854;28;20291;-41
2023/04/24 10:38:28;;;;;;;10.37;5.13;;;12.10;99.90;;;;;;5033052;28;20678;-41
2023/04/24 10:41:19;;;;;;;10.97;5.20;;;12.10;99.90;;;;;;5033491;28;20212;-40
2023/04/24 10:43:48;;;;;;;7.83;4.97;;;12.10;99.90;;;;;;5043861;28;20284;-41
2023/04/24 10:46:21;;;;;;;9.93;4.93;;;12.20;99.90;;;;;;5042079;28;20198;-40
2023/04/24 10:48:55;;;;;;;10.23;5.20;;;12.10;99.90;;;;;;5035368;28;20229;-41
2023/04/24 10:51:24;;;;;;;8.53;4.80;;;12.20;99.90;;;;;;5026118;28;20204;-41
2023/04/24 10:53:57;;;;;;;8.50;5.27;;;12.30;99.90;;;;;;5042907;28;20547;-41
2023/04/24 10:56:30;;;;;;;9.13;5.17;;;12.30;99.90;;;;;;5036800;28;20224;-40
2023/04/24 10:58:58;;;;;;;10.33;5.07;;;12.30;99.90;;;;;;5054730;28;20673;-41
2023/04/24 11:01:29;;;;;;;8.40;4.77;;;12.30;99.90;;;;;;5044042;28;20315;-41
2023/04/24 11:04:03;;;;;;;10.47;5.17;;;12.30;99.90;;;;;;5042780;28;20654;-41
2023/04/24 11:06:35;;;;;;;9.37;5.63;;;12.30;99.90;;;;;;5038197;28;20207;-41
2023/04/24 11:09:12;;;;;;;9.33;5.33;;;12.30;99.90;;;;;;5041535;28;20500;-41
2023/04/24 11:11:45;;;;;;;9.77;4.77;;;12.30;99.90;;;;;;5039363;28;21000;-41
2023/04/24 11:14:18;;;;;;;8.87;5.10;;;12.30;99.90;;;;;;5043832;28;20204;-41
2023/04/24 11:16:57;;;;;;;8.17;4.70;;;12.30;99.90;;;;;;5035621;28;20212;-41
2023/04/24 11:19:26;;;;;;;7.03;4.30;;;12.20;99.90;;;;;;5042775;28;20199;-41
2023/04/24 11:21:56;;;;;;;8.47;5.03;;;12.30;99.90;;;;;;5051120;28;20319;-41
2023/04/24 11:24:32;;;;;;;13.37;5.30;;;12.40;99.90;;;;;;5028031;28;20245;-41
2023/04/24 11:27:22;;;;;;;11.90;5.47;;;12.40;99.90;;;;;;5026236;28;20200;-42
2023/04/24 11:29:55;;;;;;;9.07;5.23;;;12.40;99.90;;;;;;5043444;28;20225;-41
2023/04/24 11:32:29;;;;;;;8.80;5.07;;;12.40;99.90;;;;;;5029965;28;20655;-41
2023/04/24 11:35:01;;;;;;;12.40;4.77;;;12.40;99.90;;;;;;5042442;28;20200;-41
2023/04/24 11:37:37;;;;;;;8.67;4.80;;;12.50;99.90;;;;;;5043282;28;20197;-42
2023/04/24 11:40:15;;;;;;;6.57;4.77;;;12.50;99.90;;;;;;5036729;28;20208;-41
2023/04/24 11:42:46;;;;;;;7.10;5.00;;;12.50;99.90;;;;;;5039030;28;20215;-41
2023/04/24 11:45:31;;;;;;;8.80;5.03;;;12.50;99.90;;;;;;5053474;28;20208;-41
2023/04/24 11:47:59;;;;;;;7.97;4.63;;;12.40;99.90;;;;;;5042348;28;20299;-41
2023/04/24 11:50:27;;;;;;;8.53;5.37;;;12.50;99.90;;;;;;5036236;28;20399;-41
2023/04/24 11:52:55;;;;;;;8.70;5.63;;;12.50;99.90;;;;;;5054834;28;20232;-41
2023/04/24 11:55:23;;;;;;;7.83;5.77;;;12.50;99.90;;;;;;5043248;28;20188;-41
2023/04/24 11:57:53;;;;;;;8.20;5.47;;;12.50;99.90;;;;;;5033571;28;20237;-41
2023/04/24 12:00:25;;;;;;;13.37;5.83;;;12.50;99.90;;;;;;5044149;28;20332;-41
2023/04/24 12:03:05;;;;;;;10.07;5.87;;;12.60;99.90;;;;;;5025813;28;20776;-41
2023/04/24 12:05:34;;;;;;;11.97;5.90;;;12.50;99.90;;;;;;5023613;28;20307;-41
2023/04/24 12:08:02;;;;;;;11.57;6.23;;;12.60;99.90;;;;;;5023386;28;20201;-41
2023/04/24 12:10:31;;;;;;;7.53;5.53;;;12.60;99.90;;;;;;5048234;28;20326;-41
2023/04/24 12:13:01;;;;;;;8.73;4.70;;;12.70;99.90;;;;;;5024342;28;20298;-40
2023/04/24 12:15:30;;;;;;;10.17;6.17;;;12.70;99.90;;;;;;5029165;28;20201;-41
2023/04/24 12:18:02;;;;;;;7.40;5.43;;;12.70;99.90;;;;;;5022868;28;20311;-41
2023/04/24 12:20:35;;;;;;;11.97;5.43;;;12.70;99.90;;;;;;5023604;28;20213;-41
2023/04/24 12:23:06;;;;;;;8.03;5.50;;;12.80;99.90;;;;;;5038156;28;20222;-41
2023/04/24 12:25:36;;;;;;;8.83;6.07;;;12.80;99.90;;;;;;5023364;28;20769;-41
2023/04/24 12:28:03;;;;;;;8.17;5.40;;;12.80;99.90;;;;;;5023475;28;20319;-42
2023/04/24 12:30:37;;;;;;;8.20;5.40;;;12.80;99.90;;;;;;5037094;28;20394;-41
2023/04/24 12:33:09;;;;;;;7.87;5.33;;;12.90;99.90;;;;;;5027085;28;20613;-41
2023/04/24 12:35:38;;;;;;;7.97;6.03;;;12.90;99.90;;;;;;5006194;28;20610;-41
2023/04/24 12:38:12;;;;;;;12.97;6.23;;;12.90;99.90;;;;;;5024498;28;20228;-41
2023/04/24 12:40:41;;;;;;;8.57;6.47;;;12.90;99.90;;;;;;5056098;28;20212;-41
2023/04/24 12:43:19;;;;;;;7.77;5.33;;;12.90;99.90;;;;;;5039326;28;20204;-41
2023/04/24 12:45:50;;;;;;;7.33;5.50;;;13.00;99.90;;;;;;5034844;28;20989;-42
2023/04/24 12:48:17;;;;;;;8.10;5.13;;;13.10;99.90;;;;;;5040022;28;20739;-41
2023/04/24 12:50:45;;;;;;;10.23;5.73;;;13.10;99.90;;;;;;5021147;28;20777;-41
2023/04/24 12:53:14;;;;;;;8.67;5.10;;;13.20;99.90;;;;;;5024837;28;20744;-42